createdAt,value
2022-09-26T00:00:20.866Z,6.80
2022-09-26T00:01:20.756Z,7.70
2022-09-26T00:02:20.686Z,6.90
2022-09-26T00:03:20.667Z,7.50
2022-09-26T00:04:23.285Z,7.40
2022-09-26T00:05:20.638Z,7.10
2022-09-26T00:06:20.800Z,7.70
2022-09-26T00:07:20.616Z,7.60
2022-09-26T00:08:20.606Z,6.70
2022-09-26T00:09:20.588Z,7.70
2022-09-26T00:10:20.587Z,7.40
2022-09-26T00:11:20.571Z,6.80
2022-09-26T00:12:21.012Z,7.30
2022-09-26T00:13:20.545Z,7.60
2022-09-26T00:14:20.536Z,7.20
2022-09-26T00:15:20.523Z,6.70
2022-09-26T00:16:20.586Z,8.20
2022-09-26T00:17:20.504Z,8.00
2022-09-26T00:18:20.660Z,7.60
2022-09-26T00:19:20.489Z,6.90
2022-09-26T00:20:20.482Z,7.30
2022-09-26T00:21:20.458Z,7.00
2022-09-26T00:22:20.455Z,7.40
2022-09-26T00:23:20.436Z,6.90
2022-09-26T00:24:20.746Z,6.90
2022-09-26T00:25:20.414Z,7.10
2022-09-26T00:26:20.405Z,7.30
2022-09-26T00:27:20.389Z,7.30
2022-09-26T00:28:20.382Z,6.80
2022-09-26T00:29:20.389Z,7.20
2022-09-26T00:30:20.550Z,7.50
2022-09-26T00:31:20.410Z,6.60
2022-09-26T00:32:20.336Z,6.90
2022-09-26T00:33:20.351Z,7.20
2022-09-26T00:34:20.317Z,7.30
2022-09-26T00:35:20.697Z,7.90
2022-09-26T00:36:20.308Z,7.20
2022-09-26T00:37:20.276Z,7.40
2022-09-26T00:38:20.265Z,7.50
2022-09-26T00:39:20.263Z,7.20
2022-09-26T00:40:20.343Z,6.80
2022-09-26T00:41:20.394Z,6.40
2022-09-26T00:42:20.233Z,6.20
2022-09-26T00:43:20.219Z,7.40
2022-09-26T00:44:20.215Z,8.50
2022-09-26T00:45:20.366Z,7.20
2022-09-26T00:46:20.254Z,6.30
2022-09-26T00:47:20.173Z,7.70
2022-09-26T00:48:20.164Z,6.30
2022-09-26T00:49:20.157Z,6.10
2022-09-26T00:50:20.353Z,6.70
2022-09-26T00:51:20.135Z,6.30
2022-09-26T00:52:20.120Z,7.10
2022-09-26T00:53:20.129Z,6.60
2022-09-26T00:54:20.095Z,7.10
2022-09-26T00:55:20.084Z,6.90
2022-09-26T00:56:20.425Z,7.50
2022-09-26T00:57:20.070Z,6.50
2022-09-26T00:58:20.065Z,7.00
2022-09-26T00:59:20.047Z,6.40
2022-09-26T01:00:20.029Z,6.30
2022-09-26T01:01:20.163Z,6.50
2022-09-26T01:02:20.393Z,6.70
2022-09-26T01:03:20.006Z,7.30
2022-09-26T01:04:20.001Z,5.70
2022-09-26T01:05:19.984Z,6.80
2022-09-26T01:06:19.972Z,6.20
2022-09-26T01:07:19.957Z,6.10
2022-09-26T01:08:20.117Z,7.00
2022-09-26T01:09:19.940Z,5.70
2022-09-26T01:10:19.925Z,7.50
2022-09-26T01:11:19.916Z,6.70
2022-09-26T01:12:19.908Z,6.80
2022-09-26T01:13:19.905Z,7.00
2022-09-26T01:14:20.045Z,6.20
2022-09-26T01:15:19.869Z,6.60
2022-09-26T01:16:19.909Z,6.80
2022-09-26T01:17:19.861Z,6.80
2022-09-26T01:18:19.835Z,7.60
2022-09-26T01:19:19.820Z,6.20
2022-09-26T01:20:19.989Z,7.20
2022-09-26T01:21:19.797Z,6.40
2022-09-26T01:22:19.790Z,6.50
2022-09-26T01:23:19.790Z,6.50
2022-09-26T01:24:19.767Z,6.40
2022-09-26T01:25:19.759Z,6.90
2022-09-26T01:26:19.910Z,6.80
2022-09-26T01:27:19.734Z,6.50
2022-09-26T01:28:19.727Z,8.40
2022-09-26T01:29:19.720Z,5.90
2022-09-26T01:30:19.706Z,10.10
2022-09-26T01:31:20.065Z,9.10
2022-09-26T01:32:19.685Z,6.70
2022-09-26T01:33:19.666Z,7.00
2022-09-26T01:34:19.670Z,6.10
2022-09-26T01:35:19.647Z,6.40
2022-09-26T01:36:19.640Z,6.10
2022-09-26T01:37:19.790Z,5.20
2022-09-26T01:38:19.616Z,7.10
2022-09-26T01:39:19.619Z,5.40
2022-09-26T01:40:19.655Z,5.90
2022-09-26T01:41:19.583Z,6.10
2022-09-26T01:42:19.574Z,6.90
2022-09-26T01:43:19.968Z,7.50
2022-09-26T01:44:19.549Z,6.10
2022-09-26T01:45:19.536Z,6.50
2022-09-26T01:46:19.622Z,7.00
2022-09-26T01:47:19.515Z,6.40
2022-09-26T01:48:19.505Z,5.90
2022-09-26T01:49:19.664Z,6.00
2022-09-26T01:50:19.483Z,6.20
2022-09-26T01:51:19.489Z,6.90
2022-09-26T01:52:19.482Z,7.20
2022-09-26T01:53:19.459Z,6.30
2022-09-26T01:54:19.457Z,6.70
2022-09-26T01:55:19.594Z,8.00
2022-09-26T01:56:19.444Z,8.20
2022-09-26T01:57:19.415Z,5.80
2022-09-26T01:58:19.406Z,5.70
2022-09-26T01:59:19.385Z,6.90
2022-09-26T02:00:19.547Z,6.60
2022-09-26T02:01:19.433Z,6.80
2022-09-26T02:02:19.466Z,6.30
2022-09-26T02:03:19.348Z,5.70
2022-09-26T02:04:19.329Z,5.90
2022-09-26T02:05:19.316Z,6.40
2022-09-26T02:06:19.469Z,6.00
2022-09-26T02:07:19.306Z,5.70
2022-09-26T02:08:19.286Z,6.30
2022-09-26T02:09:19.277Z,6.20
2022-09-26T02:10:19.272Z,5.40
2022-09-26T02:11:19.267Z,5.40
2022-09-26T02:12:19.425Z,5.60
2022-09-26T02:13:19.243Z,6.00
2022-09-26T02:14:19.225Z,6.70
2022-09-26T02:15:19.206Z,5.60
2022-09-26T02:16:19.275Z,5.60
2022-09-26T02:17:19.217Z,5.80
2022-09-26T02:18:19.549Z,5.40
2022-09-26T02:19:19.164Z,5.60
2022-09-26T02:20:19.156Z,4.90
2022-09-26T02:21:19.162Z,4.80
2022-09-26T02:22:19.153Z,5.10
2022-09-26T02:23:19.135Z,5.30
2022-09-26T02:24:19.503Z,5.30
2022-09-26T02:25:19.104Z,5.50
2022-09-26T02:26:19.098Z,5.70
2022-09-26T02:27:19.090Z,5.50
2022-09-26T02:28:19.080Z,5.70
2022-09-26T02:29:19.063Z,6.30
2022-09-26T02:30:19.753Z,6.70
2022-09-26T02:31:19.121Z,7.10
2022-09-26T02:32:19.166Z,5.90
2022-09-26T02:33:19.016Z,5.90
2022-09-26T02:34:19.020Z,6.10
2022-09-26T02:35:18.997Z,6.00
2022-09-26T02:36:19.203Z,5.40
2022-09-26T02:37:18.972Z,5.40
2022-09-26T02:38:18.967Z,5.20
2022-09-26T02:39:18.945Z,5.00
2022-09-26T02:40:19.023Z,5.40
2022-09-26T02:41:18.937Z,5.60
2022-09-26T02:42:19.076Z,5.70
2022-09-26T02:43:18.909Z,7.10
2022-09-26T02:44:18.900Z,5.30
2022-09-26T02:45:18.880Z,5.30
2022-09-26T02:46:18.967Z,5.80
2022-09-26T02:47:19.018Z,5.20
2022-09-26T02:48:18.859Z,5.80
2022-09-26T02:49:18.850Z,5.40
2022-09-26T02:50:18.841Z,4.30
2022-09-26T02:51:18.817Z,4.40
2022-09-26T02:52:18.807Z,5.70
2022-09-26T02:53:18.959Z,5.50
2022-09-26T02:54:18.789Z,4.70
2022-09-26T02:55:18.784Z,5.10
2022-09-26T02:56:18.766Z,5.10
2022-09-26T02:57:18.756Z,5.50
2022-09-26T02:58:18.748Z,4.20
2022-09-26T02:59:19.126Z,4.50
2022-09-26T03:00:18.717Z,4.50
2022-09-26T03:01:18.760Z,6.80
2022-09-26T03:02:18.719Z,5.00
2022-09-26T03:03:18.686Z,5.30
2022-09-26T03:04:18.753Z,5.80
2022-09-26T03:05:18.836Z,4.70
2022-09-26T03:06:18.675Z,4.80
2022-09-26T03:07:18.647Z,5.40
2022-09-26T03:08:18.639Z,6.50
2022-09-26T03:09:18.629Z,5.50
2022-09-26T03:10:18.871Z,5.30
2022-09-26T03:11:18.615Z,4.80
2022-09-26T03:12:18.593Z,5.70
2022-09-26T03:13:18.591Z,4.90
2022-09-26T03:14:18.572Z,4.20
2022-09-26T03:15:18.566Z,7.70
2022-09-26T03:16:18.867Z,3.80
2022-09-26T03:17:18.540Z,4.10
2022-09-26T03:18:18.528Z,4.80
2022-09-26T03:19:18.524Z,5.50
2022-09-26T03:20:18.497Z,5.70
2022-09-26T03:21:18.492Z,4.40
2022-09-26T03:22:18.636Z,4.90
2022-09-26T03:23:18.497Z,4.30
2022-09-26T03:24:18.461Z,4.40
2022-09-26T03:25:18.445Z,3.90
2022-09-26T03:26:18.441Z,6.00
2022-09-26T03:27:18.436Z,4.40
2022-09-26T03:28:18.569Z,5.50
2022-09-26T03:29:18.414Z,4.30
2022-09-26T03:30:18.642Z,4.30
2022-09-26T03:31:18.413Z,4.50
2022-09-26T03:32:18.380Z,4.70
2022-09-26T03:33:18.382Z,5.60
2022-09-26T03:34:18.348Z,3.20
2022-09-26T03:35:18.352Z,5.20
2022-09-26T03:36:18.479Z,4.90
2022-09-26T03:37:18.640Z,4.60
2022-09-26T03:38:18.321Z,3.70
2022-09-26T03:39:18.299Z,4.00
2022-09-26T03:40:18.344Z,3.80
2022-09-26T03:41:18.282Z,4.20
2022-09-26T03:42:18.266Z,3.50
2022-09-26T03:43:18.444Z,4.00
2022-09-26T03:44:18.240Z,4.60
2022-09-26T03:45:18.235Z,3.90
2022-09-26T03:46:18.342Z,5.10
2022-09-26T03:47:18.229Z,3.90
2022-09-26T03:48:18.198Z,3.60
2022-09-26T03:49:18.396Z,3.70
2022-09-26T03:50:18.178Z,4.50
2022-09-26T03:51:18.165Z,4.50
2022-09-26T03:52:18.163Z,4.70
2022-09-26T03:53:18.156Z,6.40
2022-09-26T03:54:18.137Z,4.40
2022-09-26T03:55:18.835Z,6.00
2022-09-26T03:56:18.121Z,4.90
2022-09-26T03:57:18.097Z,4.60
2022-09-26T03:58:18.102Z,5.30
2022-09-26T03:59:18.076Z,4.00
2022-09-26T04:00:18.065Z,4.00
2022-09-26T04:01:18.294Z,8.40
2022-09-26T04:02:18.213Z,4.50
2022-09-26T04:03:18.052Z,4.30
2022-09-26T04:04:18.022Z,4.20
2022-09-26T04:05:18.020Z,4.80
2022-09-26T04:06:18.011Z,5.00
2022-09-26T04:07:18.327Z,4.80
2022-09-26T04:08:17.985Z,4.10
2022-09-26T04:09:18.105Z,3.60
2022-09-26T04:10:17.960Z,4.50
2022-09-26T04:11:17.961Z,4.20
2022-09-26T04:12:17.948Z,6.20
2022-09-26T04:13:46.496Z,4.70
2022-09-26T04:14:18.911Z,4.60
2022-09-26T04:15:17.929Z,4.30
2022-09-26T04:16:17.946Z,4.60
2022-09-26T04:17:17.899Z,5.70
2022-09-26T04:18:17.886Z,5.10
2022-09-26T04:19:18.058Z,4.80
2022-09-26T04:20:17.856Z,3.60
2022-09-26T04:21:17.844Z,4.50
2022-09-26T04:22:17.826Z,6.30
2022-09-26T04:23:17.820Z,4.90
2022-09-26T04:24:17.806Z,6.10
2022-09-26T04:25:17.978Z,4.00
2022-09-26T04:26:22.745Z,4.30
2022-09-26T04:27:18.779Z,3.80
2022-09-26T04:28:17.765Z,5.30
2022-09-26T04:29:17.771Z,3.80
2022-09-26T04:30:17.926Z,6.10
2022-09-26T04:31:17.795Z,5.80
2022-09-26T04:32:17.715Z,4.30
2022-09-26T04:33:17.714Z,4.20
2022-09-26T04:34:17.695Z,5.70
2022-09-26T04:35:17.699Z,5.00
2022-09-26T04:36:17.838Z,3.60
2022-09-26T04:37:17.665Z,5.20
2022-09-26T04:38:17.661Z,5.40
2022-09-26T04:39:17.636Z,4.20
2022-09-26T04:40:17.771Z,4.30
2022-09-26T04:41:17.630Z,4.40
2022-09-26T04:42:18.354Z,4.20
2022-09-26T04:43:17.612Z,5.20
2022-09-26T04:44:17.588Z,3.70
2022-09-26T04:45:17.581Z,4.10
2022-09-26T04:46:21.594Z,4.00
2022-09-26T04:47:18.560Z,3.10
2022-09-26T04:48:17.711Z,4.30
2022-09-26T04:49:17.541Z,4.90
2022-09-26T04:50:17.516Z,5.20
2022-09-26T04:51:17.508Z,3.70
2022-09-26T04:52:17.508Z,4.20
2022-09-26T04:53:17.485Z,3.60
2022-09-26T04:54:17.734Z,3.40
2022-09-26T04:55:17.471Z,3.90
2022-09-26T04:56:17.456Z,4.80
2022-09-26T04:57:19.911Z,5.80
2022-09-26T04:58:17.446Z,5.40
2022-09-26T04:59:17.426Z,3.60
2022-09-26T05:00:17.807Z,4.50
2022-09-26T05:01:17.458Z,4.80
2022-09-26T05:02:17.441Z,5.80
2022-09-26T05:03:17.375Z,3.30
2022-09-26T05:04:17.373Z,5.90
2022-09-26T05:05:17.368Z,3.60
2022-09-26T05:06:17.975Z,4.60
2022-09-26T05:07:17.385Z,5.60
2022-09-26T05:08:17.352Z,3.50
2022-09-26T05:09:17.326Z,4.20
2022-09-26T05:10:17.308Z,4.20
2022-09-26T05:11:17.306Z,3.60
2022-09-26T05:12:17.630Z,4.10
2022-09-26T05:13:17.286Z,3.90
2022-09-26T05:14:17.285Z,4.40
2022-09-26T05:15:17.244Z,4.60
2022-09-26T05:16:17.363Z,4.60
2022-09-26T05:17:17.277Z,4.50
2022-09-26T05:18:17.390Z,5.60
2022-09-26T05:19:17.260Z,5.30
2022-09-26T05:20:17.191Z,4.50
2022-09-26T05:21:17.202Z,4.60
2022-09-26T05:22:17.169Z,3.90
2022-09-26T05:23:17.167Z,3.50
2022-09-26T05:24:17.577Z,5.30
2022-09-26T05:25:17.143Z,4.20
2022-09-26T05:26:17.131Z,3.00
2022-09-26T05:27:17.117Z,5.30
2022-09-26T05:28:17.111Z,5.60
2022-09-26T05:29:17.150Z,5.20
2022-09-26T05:30:17.251Z,5.70
2022-09-26T05:31:17.140Z,3.30
2022-09-26T05:32:17.075Z,3.70
2022-09-26T05:33:17.055Z,5.80
2022-09-26T05:34:19.879Z,5.80
2022-09-26T05:35:17.039Z,5.90
2022-09-26T05:36:17.203Z,6.80
2022-09-26T05:37:17.018Z,5.70
2022-09-26T05:38:16.988Z,5.30
2022-09-26T05:39:16.995Z,4.60
2022-09-26T05:40:17.041Z,5.90
2022-09-26T05:41:16.972Z,4.80
2022-09-26T05:42:17.111Z,4.40
2022-09-26T05:43:16.946Z,5.60
2022-09-26T05:44:16.964Z,5.70
2022-09-26T05:45:16.925Z,4.10
2022-09-26T05:46:16.953Z,3.50
2022-09-26T05:47:16.912Z,3.70
2022-09-26T05:48:17.067Z,5.90
2022-09-26T05:49:16.882Z,3.60
2022-09-26T05:50:16.866Z,5.80
2022-09-26T05:51:16.864Z,7.00
2022-09-26T05:52:16.850Z,6.50
2022-09-26T05:53:16.838Z,6.10
2022-09-26T05:54:17.067Z,2.90
2022-09-26T05:55:16.815Z,5.00
2022-09-26T05:56:19.023Z,3.90
2022-09-26T05:57:16.803Z,4.70
2022-09-26T05:58:16.776Z,4.10
2022-09-26T05:59:16.783Z,4.40
2022-09-26T06:00:16.919Z,3.60
2022-09-26T06:01:16.832Z,3.60
2022-09-26T06:02:20.715Z,5.00
2022-09-26T06:03:16.747Z,5.90
2022-09-26T06:04:16.716Z,4.70
2022-09-26T06:05:16.702Z,3.40
2022-09-26T06:06:16.950Z,4.90
2022-09-26T06:07:16.687Z,5.00
2022-09-26T06:08:16.673Z,3.90
2022-09-26T06:09:16.789Z,3.30
2022-09-26T06:10:16.680Z,4.30
2022-09-26T06:11:16.637Z,5.50
2022-09-26T06:12:16.793Z,4.00
2022-09-26T06:13:16.617Z,4.80
2022-09-26T06:14:16.616Z,4.20
2022-09-26T06:15:16.592Z,4.10
2022-09-26T06:16:16.632Z,3.30
2022-09-26T06:17:16.575Z,5.00
2022-09-26T06:18:16.727Z,3.80
2022-09-26T06:19:19.456Z,3.20
2022-09-26T06:20:17.540Z,4.50
2022-09-26T06:21:16.565Z,3.70
2022-09-26T06:22:16.517Z,3.80
2022-09-26T06:23:16.513Z,3.40
2022-09-26T06:24:16.819Z,4.30
2022-09-26T06:25:16.583Z,3.70
2022-09-26T06:26:16.472Z,3.80
2022-09-26T06:27:16.477Z,3.00
2022-09-26T06:28:16.447Z,3.90
2022-09-26T06:29:16.436Z,2.90
2022-09-26T06:30:16.624Z,3.90
2022-09-26T06:31:16.501Z,3.90
2022-09-26T06:32:16.403Z,2.50
2022-09-26T06:33:16.396Z,2.20
2022-09-26T06:34:16.513Z,2.20
2022-09-26T06:35:16.375Z,3.90
2022-09-26T06:36:16.709Z,4.80
2022-09-26T06:37:16.365Z,4.20
2022-09-26T06:38:16.344Z,4.00
2022-09-26T06:39:16.617Z,4.50
2022-09-26T06:40:16.362Z,4.60
2022-09-26T06:41:16.309Z,4.00
2022-09-26T06:42:16.501Z,2.10
2022-09-26T06:43:16.289Z,4.50
2022-09-26T06:44:16.293Z,3.30
2022-09-26T06:45:16.274Z,3.80
2022-09-26T06:46:16.388Z,4.00
2022-09-26T06:47:16.294Z,4.10
2022-09-26T06:48:18.967Z,2.90
2022-09-26T06:49:17.231Z,3.40
2022-09-26T06:50:16.213Z,5.60
2022-09-26T06:51:16.205Z,3.60
2022-09-26T06:52:16.191Z,5.60
2022-09-26T06:53:16.187Z,4.60
2022-09-26T06:54:16.527Z,2.80
2022-09-26T06:55:16.159Z,3.20
2022-09-26T06:56:16.147Z,6.60
2022-09-26T06:57:16.149Z,3.90
2022-09-26T06:58:16.127Z,2.90
2022-09-26T06:59:16.208Z,5.00
2022-09-26T07:00:16.310Z,2.50
2022-09-26T07:01:16.227Z,4.40
2022-09-26T07:02:16.153Z,4.10
2022-09-26T07:03:16.096Z,2.40
2022-09-26T07:04:16.066Z,7.30
2022-09-26T07:05:16.055Z,6.00
2022-09-26T07:06:16.399Z,4.40
2022-09-26T07:07:16.051Z,2.70
2022-09-26T07:08:16.025Z,3.10
2022-09-26T07:09:16.369Z,3.00
2022-09-26T07:10:16.072Z,3.10
2022-09-26T07:11:42.122Z,3.30
2022-09-26T07:12:17.135Z,4.20
2022-09-26T07:13:15.959Z,2.80
2022-09-26T07:14:15.955Z,4.30
2022-09-26T07:15:15.964Z,3.40
2022-09-26T07:16:16.010Z,4.80
2022-09-26T07:17:15.926Z,3.10
2022-09-26T07:18:16.159Z,3.60
2022-09-26T07:21:33.874Z,4.70
2022-09-26T07:22:33.869Z,5.00
2022-09-26T07:23:34.009Z,3.40
2022-09-26T07:24:33.838Z,2.90
2022-09-26T07:25:33.819Z,5.50
2022-09-26T07:26:33.879Z,2.80
2022-09-26T07:27:33.811Z,2.80
2022-09-26T07:28:33.807Z,1.80
2022-09-26T07:29:33.953Z,3.10
2022-09-26T07:30:33.789Z,5.10
2022-09-26T07:31:33.859Z,4.00
2022-09-26T07:32:33.755Z,4.40
2022-09-26T07:33:33.735Z,1.90
2022-09-26T07:34:33.739Z,2.30
2022-09-26T07:35:33.880Z,4.40
2022-09-26T07:36:33.745Z,2.50
2022-09-26T07:37:33.670Z,5.30
2022-09-26T07:38:33.678Z,2.90
2022-09-26T07:39:33.685Z,3.10
2022-09-26T07:40:33.682Z,3.90
2022-09-26T07:41:33.673Z,2.30
2022-09-26T07:42:33.634Z,3.20
2022-09-26T07:44:19.347Z,2.80
2022-09-26T07:45:20.394Z,3.30
2022-09-26T07:45:34.843Z,2.70
2022-09-26T07:46:33.676Z,3.20
2022-09-26T07:47:33.580Z,4.60
2022-09-26T07:48:33.566Z,5.00
2022-09-26T07:49:33.551Z,3.60
2022-09-26T07:50:33.545Z,2.30
2022-09-26T07:51:34.249Z,2.40
2022-09-26T07:52:33.520Z,3.50
2022-09-26T07:53:33.517Z,3.90
2022-09-26T07:54:33.501Z,3.20
2022-09-26T07:55:33.491Z,2.40
2022-09-26T07:56:33.484Z,2.10
2022-09-26T07:57:33.678Z,5.20
2022-09-26T07:58:33.459Z,2.00
2022-09-26T07:59:33.448Z,3.80
2022-09-26T08:00:33.434Z,2.00
2022-09-26T08:01:33.513Z,2.40
2022-09-26T08:02:33.474Z,2.40
2022-09-26T08:03:33.561Z,2.60
2022-09-26T08:04:33.391Z,2.90
2022-09-26T08:05:33.370Z,2.60
2022-09-26T08:06:33.369Z,2.10
2022-09-26T08:07:33.358Z,4.50
2022-09-26T08:08:33.351Z,2.90
2022-09-26T08:09:33.538Z,3.10
2022-09-26T08:10:33.329Z,3.70
2022-09-26T08:11:33.319Z,3.40
2022-09-26T08:12:33.478Z,3.30
2022-09-26T08:13:33.298Z,3.40
2022-09-26T08:14:33.297Z,5.00
2022-09-26T08:15:33.613Z,3.80
2022-09-26T08:16:33.409Z,4.60
2022-09-26T08:17:33.256Z,3.60
2022-09-26T08:18:33.239Z,6.40
2022-09-26T08:19:33.238Z,3.40
2022-09-26T08:20:33.222Z,6.70
2022-09-26T08:21:33.473Z,2.00
2022-09-26T08:22:33.194Z,2.90
2022-09-26T08:23:33.186Z,3.60
2022-09-26T08:24:33.176Z,2.50
2022-09-26T08:25:33.173Z,1.90
2022-09-26T08:26:33.159Z,2.20
2022-09-26T08:27:33.303Z,2.20
2022-09-26T08:28:33.141Z,3.60
2022-09-26T08:29:33.119Z,1.70
2022-09-26T08:30:33.123Z,4.00
2022-09-26T08:31:33.190Z,2.10
2022-09-26T08:32:33.250Z,3.00
2022-09-26T08:33:33.089Z,3.50
2022-09-26T08:34:33.059Z,2.00
2022-09-26T08:35:33.050Z,2.40
2022-09-26T08:36:33.038Z,3.70
2022-09-26T08:37:33.196Z,2.70
2022-09-26T08:38:33.044Z,4.30
2022-09-26T08:39:33.648Z,3.60
2022-09-26T08:40:33.036Z,2.60
2022-09-26T08:41:32.979Z,2.10
2022-09-26T08:42:32.978Z,2.60
2022-09-26T08:43:33.109Z,2.00
2022-09-26T08:44:32.954Z,3.30
2022-09-26T08:45:32.939Z,1.40
2022-09-26T08:46:33.042Z,2.70
2022-09-26T08:47:32.928Z,3.70
2022-09-26T08:48:33.127Z,2.10
2022-09-26T08:49:32.894Z,1.80
2022-09-26T08:50:32.905Z,1.70
2022-09-26T08:51:32.886Z,2.60
2022-09-26T08:52:32.878Z,1.70
2022-09-26T08:53:32.854Z,3.90
2022-09-26T08:54:33.244Z,2.70
2022-09-26T08:55:32.834Z,3.00
2022-09-26T08:56:32.819Z,2.50
2022-09-26T08:57:32.805Z,2.50
2022-09-26T08:58:32.790Z,2.30
2022-09-26T08:59:32.785Z,2.10
2022-09-26T09:00:32.932Z,1.50
2022-09-26T09:01:32.819Z,3.10
2022-09-26T09:02:32.889Z,1.90
2022-09-26T09:03:32.732Z,3.60
2022-09-26T09:04:32.731Z,4.30
2022-09-26T09:05:32.731Z,3.60
2022-09-26T09:06:33.074Z,1.80
2022-09-26T09:07:32.690Z,1.80
2022-09-26T09:08:32.701Z,1.70
2022-09-26T09:09:32.674Z,3.00
2022-09-26T09:10:32.673Z,2.90
2022-09-26T09:11:32.650Z,2.60
2022-09-26T09:12:32.865Z,1.20
2022-09-26T09:13:32.630Z,2.10
2022-09-26T09:14:32.632Z,3.00
2022-09-26T09:15:32.611Z,2.10
2022-09-26T09:16:32.659Z,3.10
2022-09-26T09:17:32.588Z,2.60
2022-09-26T09:18:32.762Z,3.60
2022-09-26T09:19:32.991Z,3.10
2022-09-26T09:20:32.563Z,2.90
2022-09-26T09:21:32.562Z,2.60
2022-09-26T09:22:32.559Z,2.70
2022-09-26T09:23:32.524Z,2.90
2022-09-26T09:24:32.513Z,3.20
2022-09-26T09:25:32.893Z,3.10
2022-09-26T09:28:33.481Z,2.30
2022-09-26T09:29:32.456Z,2.30
2022-09-26T09:30:32.449Z,1.80
2022-09-26T09:31:32.666Z,1.60
2022-09-26T09:32:32.433Z,2.70
2022-09-26T09:33:32.423Z,2.00
2022-09-26T09:34:32.414Z,1.60
2022-09-26T09:35:32.400Z,5.10
2022-09-26T09:36:32.400Z,3.10
2022-09-26T09:37:32.601Z,2.20
2022-09-26T09:38:32.362Z,3.30
2022-09-26T09:39:32.349Z,2.00
2022-09-26T09:40:32.451Z,3.70
2022-09-26T09:41:32.340Z,2.60
2022-09-26T09:42:32.356Z,1.90
2022-09-26T09:43:32.471Z,3.00
2022-09-26T09:44:32.306Z,3.20
2022-09-26T09:45:32.282Z,3.30
2022-09-26T09:46:32.302Z,2.60
2022-09-26T09:47:32.259Z,1.40
2022-09-26T09:48:32.251Z,2.00
2022-09-26T09:49:32.625Z,1.90
2022-09-26T09:50:32.391Z,2.40
2022-09-26T09:51:35.559Z,2.20
2022-09-26T09:52:33.214Z,3.30
2022-09-26T09:53:32.201Z,2.20
2022-09-26T09:54:32.196Z,3.10
2022-09-26T09:55:32.326Z,1.60
2022-09-26T09:56:32.172Z,1.50
2022-09-26T09:57:32.163Z,2.40
2022-09-26T09:58:32.132Z,2.50
2022-09-26T09:59:32.131Z,2.40
2022-09-26T10:00:32.311Z,2.90
2022-09-26T10:01:32.131Z,1.50
2022-09-26T10:02:32.164Z,2.60
2022-09-26T10:03:32.080Z,1.20
2022-09-26T10:04:32.088Z,1.80
2022-09-26T10:05:32.068Z,1.50
2022-09-26T10:06:45.670Z,3.70
2022-09-26T10:07:33.032Z,2.10
2022-09-26T10:08:32.038Z,2.60
2022-09-26T10:09:36.269Z,2.70
2022-09-26T10:10:33.012Z,2.60
2022-09-26T10:11:32.147Z,3.40
2022-09-26T10:12:32.350Z,1.80
2022-09-26T10:13:31.982Z,2.00
2022-09-26T10:14:31.969Z,3.80
2022-09-26T10:15:31.986Z,2.60
2022-09-26T10:16:32.023Z,1.60
2022-09-26T10:17:32.048Z,2.40
2022-09-26T10:18:32.143Z,2.40
2022-09-26T10:19:31.912Z,3.10
2022-09-26T10:20:31.899Z,2.60
2022-09-26T10:21:31.923Z,2.10
2022-09-26T10:22:31.873Z,2.70
2022-09-26T10:23:31.871Z,2.10
2022-09-26T10:24:32.141Z,3.00
2022-09-26T10:25:31.852Z,2.70
2022-09-26T10:26:31.848Z,3.30
2022-09-26T10:27:31.842Z,1.30
2022-09-26T10:28:31.813Z,2.20
2022-09-26T10:29:31.792Z,1.80
2022-09-26T10:30:32.049Z,2.20
2022-09-26T10:31:31.864Z,2.20
2022-09-26T10:32:31.773Z,3.60
2022-09-26T10:33:31.757Z,2.00
2022-09-26T10:34:31.754Z,1.80
2022-09-26T10:35:31.744Z,3.30
2022-09-26T10:36:31.909Z,2.40
2022-09-26T10:37:31.715Z,1.40
2022-09-26T10:38:31.713Z,2.00
2022-09-26T10:39:31.689Z,1.10
2022-09-26T10:40:31.897Z,2.40
2022-09-26T10:41:31.673Z,2.20
2022-09-26T10:42:32.535Z,1.10
2022-09-26T10:43:31.646Z,1.70
2022-09-26T10:44:31.633Z,1.80
2022-09-26T10:45:31.625Z,1.70
2022-09-26T10:46:31.917Z,1.00
2022-09-26T10:47:31.618Z,2.60
2022-09-26T10:48:31.598Z,2.60
2022-09-26T10:49:31.587Z,3.60
2022-09-26T10:50:31.574Z,1.80
2022-09-26T10:51:31.560Z,1.10
2022-09-26T10:52:31.895Z,3.00
2022-09-26T10:53:31.537Z,1.50
2022-09-26T10:54:31.525Z,1.90
2022-09-26T10:55:31.534Z,2.50
2022-09-26T10:56:31.537Z,3.90
2022-09-26T10:57:31.474Z,1.70
2022-09-26T10:58:31.716Z,2.40
2022-09-26T10:59:31.479Z,1.80
2022-09-26T11:00:31.487Z,1.50
2022-09-26T11:01:31.598Z,2.30
2022-09-26T11:02:31.442Z,2.40
2022-09-26T11:03:31.473Z,1.40
2022-09-26T11:04:31.589Z,2.40
2022-09-26T11:05:31.403Z,1.50
2022-09-26T11:06:31.423Z,2.30
2022-09-26T11:07:31.392Z,2.90
2022-09-26T11:08:31.384Z,2.20
2022-09-26T11:09:31.355Z,1.80
2022-09-26T11:10:31.518Z,2.10
2022-09-26T11:11:31.345Z,2.60
2022-09-26T11:12:31.341Z,2.30
2022-09-26T11:13:31.318Z,1.70
2022-09-26T11:14:31.319Z,2.50
2022-09-26T11:15:31.330Z,2.10
2022-09-26T11:16:34.945Z,2.90
2022-09-26T11:17:32.278Z,3.20
2022-09-26T11:18:31.257Z,1.80
2022-09-26T11:19:31.255Z,1.60
2022-09-26T11:20:31.245Z,3.50
2022-09-26T11:21:31.239Z,2.10
2022-09-26T11:22:31.383Z,2.30
2022-09-26T11:23:31.214Z,1.20
2022-09-26T11:24:31.210Z,1.30
2022-09-26T11:25:31.209Z,1.60
2022-09-26T11:26:31.177Z,2.90
2022-09-26T11:27:31.183Z,1.70
2022-09-26T11:28:31.326Z,2.20
2022-09-26T11:29:31.143Z,2.50
2022-09-26T11:30:31.128Z,1.60
2022-09-26T11:31:31.197Z,2.80
2022-09-26T11:32:31.113Z,2.90
2022-09-26T11:33:31.351Z,1.30
2022-09-26T11:34:31.095Z,2.80
2022-09-26T11:35:31.087Z,1.80
2022-09-26T11:36:31.067Z,1.60
2022-09-26T11:37:31.100Z,3.50
2022-09-26T11:38:31.045Z,3.00
2022-09-26T11:39:31.200Z,2.70
2022-09-26T11:40:31.095Z,1.50
2022-09-26T11:41:31.017Z,1.40
2022-09-26T11:42:30.998Z,2.20
2022-09-26T11:43:30.986Z,3.20
2022-09-26T11:44:30.983Z,1.60
2022-09-26T11:45:34.876Z,1.90
2022-09-26T11:46:32.005Z,1.60
2022-09-26T11:47:30.946Z,2.40
2022-09-26T11:48:31.016Z,2.10
2022-09-26T11:49:30.932Z,1.20
2022-09-26T11:50:30.914Z,1.80
2022-09-26T11:51:31.316Z,2.10
2022-09-26T11:52:30.897Z,2.00
2022-09-26T11:53:30.878Z,0.80
2022-09-26T11:54:30.895Z,1.20
2022-09-26T11:55:30.900Z,1.80
2022-09-26T11:56:30.895Z,1.40
2022-09-26T11:57:31.022Z,1.30
2022-09-26T11:58:30.821Z,1.90
2022-09-26T11:59:30.833Z,1.60
2022-09-26T12:00:30.806Z,3.30
2022-09-26T12:01:30.795Z,1.40
2022-09-26T12:02:31.005Z,0.70
2022-09-26T12:03:31.086Z,2.20
2022-09-26T12:04:30.797Z,1.60
2022-09-26T12:05:30.752Z,5.10
2022-09-26T12:06:30.755Z,1.70
2022-09-26T12:07:30.729Z,3.70
2022-09-26T12:08:30.748Z,2.10
2022-09-26T12:09:30.888Z,1.30
2022-09-26T12:10:30.690Z,2.10
2022-09-26T12:11:30.687Z,1.00
2022-09-26T12:12:30.670Z,1.40
2022-09-26T12:13:30.659Z,0.70
2022-09-26T12:14:30.661Z,1.40
2022-09-26T12:15:30.973Z,1.70
2022-09-26T12:16:30.711Z,1.70
2022-09-26T12:17:30.620Z,2.00
2022-09-26T12:18:30.635Z,2.00
2022-09-26T12:19:30.600Z,3.50
2022-09-26T12:20:30.592Z,1.30
2022-09-26T12:21:30.800Z,2.90
2022-09-26T12:22:30.579Z,1.00
2022-09-26T12:23:30.559Z,1.70
2022-09-26T12:24:30.550Z,1.90
2022-09-26T12:25:30.535Z,1.70
2022-09-26T12:26:30.526Z,1.50
2022-09-26T12:27:30.845Z,0.60
2022-09-26T12:28:30.489Z,2.30
2022-09-26T12:29:30.492Z,2.20
2022-09-26T12:30:30.475Z,1.00
2022-09-26T12:31:30.550Z,1.40
2022-09-26T12:32:30.450Z,3.10
2022-09-26T12:33:30.630Z,1.80
2022-09-26T12:34:30.426Z,1.00
2022-09-26T12:35:30.511Z,1.70
2022-09-26T12:36:30.421Z,1.90
2022-09-26T12:37:30.401Z,2.70
2022-09-26T12:38:30.390Z,1.30
2022-09-26T12:39:30.560Z,2.00
2022-09-26T12:40:30.431Z,2.30
2022-09-26T12:41:30.391Z,3.20
2022-09-26T12:42:30.346Z,3.60
2022-09-26T12:43:30.340Z,4.00
2022-09-26T12:44:30.319Z,3.20
2022-09-26T12:45:30.545Z,3.30
2022-09-26T12:46:30.354Z,2.10
2022-09-26T12:47:30.292Z,1.90
2022-09-26T12:48:30.273Z,1.30
2022-09-26T12:49:30.270Z,2.60
2022-09-26T12:50:30.261Z,2.20
2022-09-26T12:51:30.468Z,1.70
2022-09-26T12:52:30.234Z,1.80
2022-09-26T12:53:30.227Z,1.80
2022-09-26T12:54:30.213Z,2.60
2022-09-26T12:55:30.212Z,1.20
2022-09-26T12:56:30.194Z,1.80
2022-09-26T12:57:30.526Z,2.20
2022-09-26T12:58:30.171Z,2.60
2022-09-26T12:59:30.166Z,2.20
2022-09-26T13:00:30.154Z,1.30
2022-09-26T13:01:30.188Z,3.60
2022-09-26T13:02:30.216Z,2.60
2022-09-26T13:03:30.291Z,1.90
2022-09-26T13:04:30.171Z,1.60
2022-09-26T13:05:30.098Z,2.60
2022-09-26T13:06:30.077Z,2.50
2022-09-26T13:07:30.063Z,2.10
2022-09-26T13:08:30.071Z,1.50
2022-09-26T13:09:30.262Z,1.60
2022-09-26T13:10:30.037Z,1.60
2022-09-26T13:11:32.597Z,1.90
2022-09-26T13:12:30.017Z,1.50
2022-09-26T13:13:30.013Z,3.00
2022-09-26T13:14:29.990Z,1.50
2022-09-26T13:15:30.345Z,1.80
2022-09-26T13:16:29.972Z,3.10
2022-09-26T13:17:29.969Z,2.10
2022-09-26T13:18:34.648Z,1.40
2022-09-26T13:19:30.935Z,1.00
2022-09-26T13:20:29.923Z,2.20
2022-09-26T13:21:30.105Z,1.70
2022-09-26T13:22:29.904Z,2.20